Terminal Aerodrome Forecast
Issued by NWS Sioux Falls, SD

Home | Current Version | Previous Version | Text Only | Print | Product List | Glossary Off
Versions: 1 2 3 4 5 6 7 8 9 10 11 12 13 14

000
FTUS43 KFSD 231724
TAFFSD
TAF
KFSD 231724Z 2318/2418 11004KT P6SM FEW250
     FM232200 13005KT P6SM FEW250
     FM241000 08003KT P6SM BKN080
     FM241600 02011KT P6SM BKN100=

USA.gov is the U.S. government's official web portal to all federal, state and local government web resources and services.